createdAt,value
2022-08-27T00:00:00.461Z,0.98
2022-08-27T00:02:29.610Z,0.90
2022-08-27T00:04:58.771Z,0.77
2022-08-27T00:07:27.778Z,0.90
2022-08-27T00:09:57.220Z,0.85
2022-08-27T00:12:26.417Z,0.85
2022-08-27T00:14:55.471Z,0.65
2022-08-27T00:17:24.556Z,0.90
2022-08-27T00:19:53.710Z,0.70
2022-08-27T00:22:23.278Z,0.60
2022-08-27T00:24:52.372Z,0.80
2022-08-27T00:27:21.470Z,0.70
2022-08-27T00:29:50.597Z,0.70
2022-08-27T00:32:20.152Z,0.77
2022-08-27T00:34:49.347Z,0.80
2022-08-27T00:37:18.345Z,0.90
2022-08-27T00:39:47.625Z,1.00
2022-08-27T00:42:16.838Z,1.17
2022-08-27T00:44:45.968Z,0.85
2022-08-27T00:47:21.044Z,0.80
2022-08-27T00:49:53.910Z,0.70
2022-08-27T00:52:31.459Z,0.75
2022-08-27T00:55:11.256Z,0.75
2022-08-27T00:57:44.423Z,0.88
2022-08-27T01:00:17.105Z,1.02
2022-08-27T01:02:48.215Z,0.85
2022-08-27T01:05:23.924Z,0.75
2022-08-27T01:07:58.994Z,0.80
2022-08-27T01:10:30.361Z,0.80
2022-08-27T01:13:00.000Z,0.75
2022-08-27T01:15:31.140Z,0.98
2022-08-27T01:18:03.807Z,0.70
2022-08-27T01:20:42.945Z,0.90
2022-08-27T01:23:35.013Z,0.80
2022-08-27T01:26:07.768Z,0.90
2022-08-27T01:28:38.297Z,1.00
2022-08-27T01:31:12.349Z,0.80
2022-08-27T01:33:42.162Z,1.10
2022-08-27T01:36:11.315Z,1.05
2022-08-27T01:38:40.357Z,1.00
2022-08-27T01:41:12.477Z,0.70
2022-08-27T01:43:41.549Z,0.70
2022-08-27T01:46:11.060Z,0.80
2022-08-27T01:48:40.612Z,0.70
2022-08-27T01:51:10.705Z,0.80
2022-08-27T01:53:39.824Z,1.00
2022-08-27T01:56:09.090Z,0.90
2022-08-27T01:58:39.749Z,0.70
2022-08-27T02:01:12.634Z,0.50
2022-08-27T02:03:42.937Z,1.05
2022-08-27T02:06:13.381Z,0.80
2022-08-27T02:08:43.150Z,0.75
2022-08-27T02:11:12.270Z,0.82
2022-08-27T02:13:41.414Z,0.70
2022-08-27T02:16:10.774Z,0.65
2022-08-27T02:18:41.681Z,0.63
2022-08-27T02:21:11.455Z,1.10
2022-08-27T02:23:42.873Z,0.90
2022-08-27T02:26:12.084Z,0.90
2022-08-27T02:28:42.711Z,1.08
2022-08-27T02:31:11.849Z,0.80
2022-08-27T02:33:41.292Z,0.75
2022-08-27T02:36:12.793Z,1.10
2022-08-27T02:38:42.219Z,0.60
2022-08-27T02:41:11.916Z,0.82
2022-08-27T02:43:41.335Z,0.95
2022-08-27T02:46:13.054Z,1.10
2022-08-27T02:48:43.600Z,0.90
2022-08-27T02:51:12.798Z,0.90
2022-08-27T02:53:41.830Z,1.00
2022-08-27T02:56:11.434Z,0.90
2022-08-27T02:58:42.263Z,0.90
2022-08-27T03:01:13.845Z,0.95
2022-08-27T03:03:43.436Z,0.90
2022-08-27T03:06:12.857Z,0.80
2022-08-27T03:08:52.107Z,0.80
2022-08-27T03:11:24.428Z,0.85
2022-08-27T03:13:54.037Z,0.90
2022-08-27T03:16:23.368Z,0.80
2022-08-27T03:18:53.538Z,0.80
2022-08-27T03:21:27.684Z,0.82
2022-08-27T03:23:56.829Z,0.90
2022-08-27T03:26:26.606Z,0.80
2022-08-27T03:28:57.494Z,0.70
2022-08-27T03:31:28.668Z,0.70
2022-08-27T03:34:04.686Z,0.70
2022-08-27T03:36:34.268Z,0.73
2022-08-27T03:39:03.585Z,0.75
2022-08-27T03:41:45.399Z,0.88
2022-08-27T03:44:25.106Z,0.60
2022-08-27T03:46:54.358Z,0.60
2022-08-27T03:49:24.576Z,0.90
2022-08-27T03:51:55.390Z,0.80
2022-08-27T03:54:25.828Z,0.65
2022-08-27T03:56:55.033Z,0.73
2022-08-27T03:59:24.775Z,0.90
2022-08-27T04:01:54.439Z,0.90
2022-08-27T04:04:25.066Z,0.70
2022-08-27T04:06:54.161Z,0.95
2022-08-27T04:09:27.388Z,0.80
2022-08-27T04:11:56.848Z,0.85
2022-08-27T04:14:27.123Z,1.00
2022-08-27T04:16:58.271Z,1.17
2022-08-27T04:19:31.065Z,0.75
2022-08-27T04:22:02.514Z,0.77
2022-08-27T04:24:36.625Z,0.70
2022-08-27T04:27:07.547Z,0.80
2022-08-27T04:29:36.746Z,0.60
2022-08-27T04:32:09.322Z,0.73
2022-08-27T04:34:38.380Z,0.63
2022-08-27T04:37:07.643Z,0.70
2022-08-27T04:39:36.809Z,0.50
2022-08-27T04:42:06.067Z,0.80
2022-08-27T04:44:35.132Z,0.80
2022-08-27T04:47:06.600Z,0.60
2022-08-27T04:49:37.842Z,0.60
2022-08-27T04:52:07.116Z,0.80
2022-08-27T04:55:51.655Z,0.50
2022-08-27T04:58:22.851Z,0.50
2022-08-27T05:01:02.443Z,0.57
2022-08-27T05:03:31.617Z,0.90
2022-08-27T05:06:06.295Z,0.60
2022-08-27T05:08:35.953Z,0.85
2022-08-27T05:11:12.355Z,0.63
2022-08-27T05:13:43.042Z,0.60
2022-08-27T05:16:15.360Z,0.80
2022-08-27T05:18:48.716Z,0.60
2022-08-27T05:21:29.488Z,0.70
2022-08-27T05:24:00.828Z,0.70
2022-08-27T05:26:31.260Z,0.55
2022-08-27T05:29:01.530Z,0.73
2022-08-27T05:31:30.975Z,0.90
2022-08-27T05:34:25.814Z,0.80
2022-08-27T05:36:56.869Z,0.82
2022-08-27T05:39:28.078Z,0.70
2022-08-27T05:41:59.405Z,0.73
2022-08-27T05:44:45.011Z,0.98
2022-08-27T05:47:14.140Z,0.60
2022-08-27T05:49:43.152Z,1.00
2022-08-27T05:52:13.291Z,1.05
2022-08-27T05:54:42.487Z,1.10
2022-08-27T05:57:11.528Z,0.75
2022-08-27T05:59:59.653Z,0.88
2022-08-27T06:02:29.213Z,0.70
2022-08-27T06:04:58.522Z,0.90
2022-08-27T06:07:27.576Z,0.73
2022-08-27T06:09:57.071Z,0.90
2022-08-27T06:12:28.380Z,0.88
2022-08-27T06:14:58.435Z,1.30
2022-08-27T06:17:27.784Z,0.85
2022-08-27T06:19:57.077Z,1.00
2022-08-27T06:22:26.467Z,0.93
2022-08-27T06:24:55.513Z,1.08
2022-08-27T06:27:24.690Z,1.15
2022-08-27T06:29:53.732Z,1.20
2022-08-27T06:32:24.879Z,1.13
2022-08-27T06:34:53.941Z,1.15
2022-08-27T06:37:22.969Z,0.95
2022-08-27T06:39:52.545Z,2.55
2022-08-27T06:42:21.550Z,1.00
2022-08-27T06:44:55.431Z,0.90
2022-08-27T06:47:24.535Z,1.20
2022-08-27T06:49:53.563Z,0.80
2022-08-27T06:52:22.718Z,1.25
2022-08-27T06:54:51.763Z,1.08
2022-08-27T06:57:20.934Z,1.20
2022-08-27T06:59:50.071Z,0.93
2022-08-27T07:02:19.455Z,0.90
2022-08-27T07:04:48.681Z,1.10
2022-08-27T07:07:32.651Z,1.05
2022-08-27T07:10:08.384Z,0.85
2022-08-27T07:12:37.516Z,1.00
2022-08-27T07:15:07.020Z,1.00
2022-08-27T07:17:36.170Z,1.50
2022-08-27T07:20:06.405Z,0.82
2022-08-27T07:22:35.769Z,1.23
2022-08-27T07:25:05.208Z,1.05
2022-08-27T07:27:34.344Z,1.63
2022-08-27T07:30:03.564Z,1.00
2022-08-27T07:32:32.851Z,0.90
2022-08-27T07:35:01.904Z,1.13
2022-08-27T07:37:35.156Z,1.48
2022-08-27T07:40:07.295Z,0.98
2022-08-27T07:42:55.159Z,1.20
2022-08-27T07:45:24.735Z,1.30
2022-08-27T07:47:53.895Z,1.10
2022-08-27T07:50:24.553Z,1.00
2022-08-27T07:52:54.161Z,1.08
2022-08-27T07:55:23.219Z,1.13
2022-08-27T07:57:53.558Z,0.90
2022-08-27T08:00:22.849Z,0.75
2022-08-27T08:02:51.955Z,1.23
2022-08-27T08:05:21.343Z,1.05
2022-08-27T08:07:51.509Z,1.48
2022-08-27T08:10:24.246Z,1.30
2022-08-27T08:12:53.483Z,1.30
2022-08-27T08:15:22.512Z,1.30
2022-08-27T08:17:51.811Z,0.95
2022-08-27T08:20:35.659Z,1.65
2022-08-27T08:23:10.573Z,1.05
2022-08-27T08:25:39.762Z,1.10
2022-08-27T08:28:09.351Z,1.30
2022-08-27T08:30:39.251Z,1.42
2022-08-27T08:33:08.468Z,1.20
2022-08-27T08:35:41.184Z,1.30
2022-08-27T08:38:11.386Z,1.40
2022-08-27T08:40:50.584Z,1.70
2022-08-27T08:43:38.961Z,1.27
2022-08-27T08:46:31.868Z,1.40
2022-08-27T08:49:09.257Z,1.35
2022-08-27T08:51:42.549Z,1.65
2022-08-27T08:54:22.850Z,1.23
2022-08-27T08:57:18.717Z,1.50
2022-08-27T08:59:57.916Z,1.20
2022-08-27T09:02:27.027Z,1.25
2022-08-27T09:04:57.251Z,1.42
2022-08-27T09:07:47.972Z,1.60
2022-08-27T09:10:33.858Z,1.08
2022-08-27T09:13:06.348Z,1.88
2022-08-27T09:15:37.455Z,1.55
2022-08-27T09:18:14.758Z,1.27
2022-08-27T09:20:50.889Z,1.15
2022-08-27T09:24:04.840Z,1.38
2022-08-27T09:26:38.564Z,1.45
2022-08-27T09:29:19.962Z,1.27
2022-08-27T09:32:06.617Z,1.40
2022-08-27T09:34:40.887Z,1.38
2022-08-27T09:37:13.198Z,0.90
2022-08-27T09:39:51.541Z,1.27
2022-08-27T09:42:29.953Z,1.50
2022-08-27T09:44:59.519Z,0.90
2022-08-27T09:47:29.991Z,1.48
2022-08-27T09:50:07.189Z,1.40
2022-08-27T09:52:57.946Z,1.25
2022-08-27T09:55:36.299Z,1.20
2022-08-27T09:58:17.825Z,1.25
2022-08-27T10:00:48.858Z,1.27
2022-08-27T10:03:23.631Z,1.45
2022-08-27T10:05:54.993Z,0.90
2022-08-27T10:08:27.065Z,0.98
2022-08-27T10:11:21.669Z,1.40
2022-08-27T10:14:17.224Z,1.30
2022-08-27T10:17:01.387Z,1.38
2022-08-27T10:19:58.197Z,0.90
2022-08-27T10:22:42.777Z,0.90
2022-08-27T10:25:59.358Z,0.80
2022-08-27T10:28:55.615Z,1.20
2022-08-27T10:31:32.317Z,0.90
2022-08-27T10:34:07.276Z,0.80
2022-08-27T10:36:55.829Z,0.68
2022-08-27T10:39:36.575Z,0.90
2022-08-27T10:42:19.849Z,0.82
2022-08-27T10:44:51.984Z,0.60
2022-08-27T10:47:41.600Z,1.75
2022-08-27T10:50:31.105Z,0.90
2022-08-27T10:53:09.778Z,0.80
2022-08-27T10:55:46.973Z,0.77
2022-08-27T10:58:27.919Z,1.00
2022-08-27T11:01:16.424Z,1.10
2022-08-27T11:03:54.101Z,0.90
2022-08-27T11:06:23.110Z,1.13
2022-08-27T11:09:00.146Z,1.08
2022-08-27T11:12:15.713Z,1.02
2022-08-27T11:14:57.789Z,1.13
2022-08-27T11:17:36.939Z,1.30
2022-08-27T11:20:14.025Z,1.38
2022-08-27T11:22:54.615Z,1.70
2022-08-27T11:25:23.693Z,1.70
2022-08-27T11:27:54.527Z,1.30
2022-08-27T11:30:58.604Z,1.73
2022-08-27T11:33:46.172Z,1.30
2022-08-27T11:36:18.177Z,1.60
2022-08-27T11:38:49.824Z,1.55
2022-08-27T11:42:02.274Z,1.83
2022-08-27T11:44:32.412Z,1.63
2022-08-27T11:47:13.434Z,1.50
2022-08-27T11:49:58.000Z,2.22
2022-08-27T11:52:42.188Z,1.65
2022-08-27T11:55:14.157Z,2.25
2022-08-27T11:57:44.115Z,2.03
2022-08-27T12:00:19.790Z,2.17
2022-08-27T12:03:05.779Z,1.40
2022-08-27T12:05:37.297Z,1.88
2022-08-27T12:08:35.715Z,2.03
2022-08-27T12:11:13.543Z,1.90
2022-08-27T12:14:24.157Z,2.75
2022-08-27T12:17:29.189Z,2.35
2022-08-27T12:20:42.877Z,1.98
2022-08-27T12:23:42.350Z,2.55
2022-08-27T12:26:26.560Z,2.08
2022-08-27T12:29:18.426Z,2.28
2022-08-27T12:31:52.385Z,1.77
2022-08-27T12:34:27.768Z,2.03
2022-08-27T12:36:57.839Z,2.20
2022-08-27T12:39:31.686Z,1.88
2022-08-27T12:42:00.797Z,1.80
2022-08-27T12:44:34.009Z,2.03
2022-08-27T12:47:11.294Z,2.28
2022-08-27T12:49:55.093Z,2.67
2022-08-27T12:52:43.104Z,2.55
2022-08-27T12:55:31.953Z,2.45
2022-08-27T12:58:03.980Z,2.13
2022-08-27T13:00:59.718Z,1.90
2022-08-27T13:03:42.557Z,2.85
2022-08-27T13:06:21.656Z,2.22
2022-08-27T13:08:56.455Z,2.10
2022-08-27T13:11:28.403Z,2.40
2022-08-27T13:14:13.091Z,2.60
2022-08-27T13:16:58.295Z,2.50
2022-08-27T13:19:30.087Z,2.20
2022-08-27T13:22:00.400Z,1.88
2022-08-27T13:24:29.426Z,1.98
2022-08-27T13:26:59.090Z,2.10
2022-08-27T13:29:29.366Z,1.52
2022-08-27T13:32:00.867Z,1.90
2022-08-27T13:34:36.638Z,1.38
2022-08-27T13:37:09.500Z,1.53
2022-08-27T13:39:39.645Z,1.75
2022-08-27T13:42:10.211Z,1.60
2022-08-27T13:44:42.178Z,1.73
2022-08-27T13:47:18.748Z,1.83
2022-08-27T13:49:48.090Z,2.20
2022-08-27T13:52:20.009Z,2.08
2022-08-27T13:54:52.527Z,1.85
2022-08-27T13:57:33.384Z,2.05
2022-08-27T14:00:17.939Z,2.17
2022-08-27T14:02:55.735Z,2.00
2022-08-27T14:05:25.631Z,2.40
2022-08-27T14:08:01.560Z,1.80
2022-08-27T14:10:41.628Z,2.33
2022-08-27T14:13:24.651Z,1.98
2022-08-27T14:15:56.730Z,1.63
2022-08-27T14:18:42.514Z,1.90
2022-08-27T14:21:17.568Z,2.42
2022-08-27T14:23:47.103Z,2.42
2022-08-27T14:26:18.214Z,1.80
2022-08-27T14:28:48.078Z,2.38
2022-08-27T14:31:17.684Z,2.78
2022-08-27T14:33:48.540Z,2.00
2022-08-27T14:36:17.959Z,2.33
2022-08-27T14:38:49.938Z,2.75
2022-08-27T14:41:21.605Z,2.00
2022-08-27T14:43:50.999Z,2.20
2022-08-27T14:46:29.893Z,2.10
2022-08-27T14:49:02.860Z,2.92
2022-08-27T14:51:33.496Z,2.10
2022-08-27T14:54:03.335Z,2.17
2022-08-27T14:56:32.437Z,2.70
2022-08-27T14:59:01.738Z,2.55
2022-08-27T15:01:31.194Z,2.55
2022-08-27T15:04:00.470Z,2.30
2022-08-27T15:06:29.691Z,2.78
2022-08-27T15:08:58.884Z,2.05
2022-08-27T15:11:34.788Z,2.33
2022-08-27T15:14:10.374Z,2.77
2022-08-27T15:16:43.077Z,2.33
2022-08-27T15:19:16.269Z,2.08
2022-08-27T15:21:48.238Z,3.28
2022-08-27T15:24:19.950Z,1.98
2022-08-27T15:26:49.921Z,2.58
2022-08-27T15:29:19.151Z,2.40
2022-08-27T15:31:48.339Z,3.28
2022-08-27T15:34:17.972Z,2.33
2022-08-27T15:36:47.324Z,2.47
2022-08-27T15:39:16.533Z,2.20
2022-08-27T15:42:05.081Z,2.60
2022-08-27T15:44:36.787Z,2.70
2022-08-27T15:47:06.336Z,2.38
2022-08-27T15:49:35.493Z,2.55
2022-08-27T15:52:06.161Z,2.70
2022-08-27T15:54:35.972Z,3.28
2022-08-27T15:57:06.435Z,2.85
2022-08-27T15:59:36.546Z,2.13
2022-08-27T16:02:08.504Z,2.20
2022-08-27T16:04:37.819Z,3.13
2022-08-27T16:07:07.124Z,2.30
2022-08-27T16:09:36.325Z,2.67
2022-08-27T16:12:05.659Z,3.40
2022-08-27T16:14:35.183Z,3.33
2022-08-27T16:17:04.646Z,2.45
2022-08-27T16:19:39.365Z,3.40
2022-08-27T16:22:09.174Z,2.78
2022-08-27T16:24:38.385Z,2.88
2022-08-27T16:27:07.498Z,2.25
2022-08-27T16:29:36.617Z,2.30
2022-08-27T16:32:06.721Z,2.35
2022-08-27T16:34:37.573Z,2.65
2022-08-27T16:37:06.698Z,3.03
2022-08-27T16:39:40.420Z,2.15
2022-08-27T16:42:11.523Z,2.50
2022-08-27T16:44:40.880Z,2.72
2022-08-27T16:47:10.030Z,2.70
2022-08-27T16:49:57.495Z,3.22
2022-08-27T16:52:26.844Z,3.72
2022-08-27T16:54:57.683Z,4.03
2022-08-27T16:57:26.869Z,2.95
2022-08-27T16:59:56.609Z,2.67
2022-08-27T17:02:31.946Z,3.35
2022-08-27T17:05:23.789Z,2.65
2022-08-27T17:07:51.325Z,2.75
2022-08-27T17:10:23.951Z,2.70
2022-08-27T17:12:53.389Z,2.75
2022-08-27T17:15:22.933Z,2.63
2022-08-27T17:17:53.933Z,2.90
2022-08-27T17:20:23.035Z,2.10
2022-08-27T17:22:52.546Z,2.50
2022-08-27T17:25:21.733Z,2.83
2022-08-27T17:28:00.410Z,3.00
2022-08-27T17:30:29.881Z,2.40
2022-08-27T17:32:59.137Z,2.55
2022-08-27T17:35:28.213Z,2.72
2022-08-27T17:37:57.294Z,2.85
2022-08-27T17:40:26.719Z,2.63
2022-08-27T17:42:56.003Z,2.33
2022-08-27T17:45:25.799Z,3.13
2022-08-27T17:47:54.995Z,2.25
2022-08-27T17:50:24.905Z,2.63
2022-08-27T17:52:54.011Z,2.80
2022-08-27T17:55:25.023Z,2.75
2022-08-27T17:57:54.095Z,3.10
2022-08-27T18:00:23.728Z,2.55
2022-08-27T18:02:54.498Z,2.63
2022-08-27T18:05:26.681Z,2.40
2022-08-27T18:07:57.885Z,2.65
2022-08-27T18:10:28.362Z,2.92
2022-08-27T18:12:57.789Z,2.97
2022-08-27T18:15:30.126Z,2.90
2022-08-27T18:17:59.938Z,2.22
2022-08-27T18:20:31.964Z,2.60
2022-08-27T18:23:01.773Z,2.88
2022-08-27T18:25:35.964Z,2.28
2022-08-27T18:28:08.830Z,2.70
2022-08-27T18:30:40.516Z,2.20
2022-08-27T18:33:10.169Z,3.28
2022-08-27T18:35:40.795Z,2.55
2022-08-27T18:38:10.478Z,2.88
2022-08-27T18:40:44.662Z,2.90
2022-08-27T18:43:15.813Z,2.53
2022-08-27T18:45:45.364Z,2.97
2022-08-27T18:48:22.129Z,2.67
2022-08-27T18:50:57.968Z,2.85
2022-08-27T18:53:29.636Z,2.60
2022-08-27T18:55:59.895Z,2.80
2022-08-27T18:58:29.794Z,2.72
2022-08-27T19:01:03.038Z,3.38
2022-08-27T19:03:39.616Z,2.88
2022-08-27T19:06:09.843Z,2.50
2022-08-27T19:08:40.456Z,3.03
2022-08-27T19:11:09.810Z,3.22
2022-08-27T19:13:39.088Z,3.05
2022-08-27T19:16:15.648Z,3.35
2022-08-27T19:21:14.142Z,2.83
2022-08-27T19:23:43.819Z,2.60
2022-08-27T19:26:19.226Z,3.15
2022-08-27T19:28:48.735Z,2.65
2022-08-27T19:31:18.207Z,2.55
2022-08-27T19:33:47.393Z,2.72
2022-08-27T19:36:19.815Z,2.92
2022-08-27T19:38:52.509Z,2.33
2022-08-27T19:41:24.869Z,2.38
2022-08-27T19:43:57.111Z,2.88
2022-08-27T19:46:27.498Z,2.42
2022-08-27T19:48:58.851Z,3.00
2022-08-27T19:51:28.630Z,2.40
2022-08-27T19:53:57.701Z,3.72
2022-08-27T19:56:29.905Z,2.90
2022-08-27T19:59:13.381Z,2.75
2022-08-27T20:01:50.109Z,2.80
2022-08-27T20:04:19.581Z,2.75
2022-08-27T20:09:50.190Z,3.28
2022-08-27T20:12:19.425Z,3.03
2022-08-27T20:14:50.034Z,3.15
2022-08-27T20:17:21.291Z,2.88
2022-08-27T20:19:51.932Z,2.25
2022-08-27T20:22:21.434Z,2.97
2022-08-27T20:24:50.491Z,2.80
2022-08-27T20:27:19.664Z,2.90
2022-08-27T20:29:48.952Z,3.25
2022-08-27T20:32:18.843Z,3.13
2022-08-27T20:34:48.451Z,2.47
2022-08-27T20:37:18.453Z,2.28
2022-08-27T20:39:48.747Z,2.65
2022-08-27T20:42:18.812Z,2.60
2022-08-27T20:44:51.533Z,3.33
2022-08-27T20:47:26.150Z,2.80
2022-08-27T20:49:55.625Z,2.40
2022-08-27T20:52:26.951Z,3.35
2022-08-27T20:54:56.103Z,2.67
2022-08-27T20:57:25.303Z,2.83
2022-08-27T21:00:12.746Z,2.67
2022-08-27T21:02:42.185Z,3.05
2022-08-27T21:05:18.416Z,3.00
2022-08-27T21:07:49.613Z,3.05
2022-08-27T21:10:20.263Z,2.50
2022-08-27T21:12:50.476Z,2.90
2022-08-27T21:15:20.009Z,3.00
2022-08-27T21:17:49.188Z,3.25
2022-08-27T21:20:18.704Z,2.47
2022-08-27T21:22:47.922Z,2.65
2022-08-27T21:25:17.104Z,2.70
2022-08-27T21:27:46.157Z,2.88
2022-08-27T21:30:15.389Z,2.67
2022-08-27T21:32:44.574Z,3.40
2022-08-27T21:35:14.003Z,2.92
2022-08-27T21:37:44.564Z,2.75
2022-08-27T21:40:13.815Z,2.67
2022-08-27T21:42:42.868Z,2.53
2022-08-27T21:45:12.252Z,2.97
2022-08-27T21:47:41.755Z,3.17
2022-08-27T21:50:11.345Z,2.70
2022-08-27T21:52:40.579Z,2.40
2022-08-27T21:55:10.367Z,2.58
2022-08-27T21:57:39.606Z,3.13
2022-08-27T22:00:36.990Z,2.88
2022-08-27T22:03:10.297Z,2.50
2022-08-27T22:05:42.415Z,2.35
2022-08-27T22:08:13.858Z,3.35
2022-08-27T22:10:48.375Z,2.67
2022-08-27T22:13:18.041Z,2.60
2022-08-27T22:15:47.327Z,2.30
2022-08-27T22:18:16.454Z,2.47
2022-08-27T22:20:46.968Z,2.78
2022-08-27T22:23:16.360Z,3.10
2022-08-27T22:25:45.451Z,2.53
2022-08-27T22:28:17.530Z,2.88
2022-08-27T22:30:47.973Z,3.20
2022-08-27T22:33:17.385Z,2.92
2022-08-27T22:35:46.884Z,3.08
2022-08-27T22:38:16.418Z,3.20
2022-08-27T22:40:45.637Z,2.72
2022-08-27T22:43:15.669Z,2.60
2022-08-27T22:45:44.675Z,2.15
2022-08-27T22:48:14.294Z,3.05
2022-08-27T22:50:43.446Z,2.50
2022-08-27T22:53:13.091Z,2.90
2022-08-27T22:55:43.905Z,3.10
2022-08-27T22:58:16.034Z,2.60
2022-08-27T23:00:50.814Z,2.53
2022-08-27T23:03:22.270Z,2.50
2022-08-27T23:05:51.498Z,2.60
2022-08-27T23:08:20.671Z,2.55
2022-08-27T23:10:50.586Z,2.60
2022-08-27T23:13:19.682Z,2.90
2022-08-27T23:15:48.808Z,2.35
2022-08-27T23:18:17.994Z,2.42
2022-08-27T23:20:47.034Z,2.28
2022-08-27T23:23:16.194Z,2.90
2022-08-27T23:26:07.555Z,2.70
2022-08-27T23:28:36.702Z,2.85
2022-08-27T23:31:05.784Z,2.35
2022-08-27T23:33:35.014Z,2.70
2022-08-27T23:36:04.258Z,2.50
2022-08-27T23:38:34.667Z,2.33
2022-08-27T23:41:03.808Z,2.25
2022-08-27T23:43:32.988Z,2.47
2022-08-27T23:46:02.319Z,2.60
2022-08-27T23:48:31.422Z,2.60
2022-08-27T23:51:00.641Z,2.10
2022-08-27T23:53:29.946Z,2.05
2022-08-27T23:55:59.079Z,2.28
2022-08-27T23:58:28.142Z,2.95
